MCBH Kaneohe Bay, Hawaii
Current Conditions -  °F | °C
As of 9:25 PM on Friday 24 Oct 2014 (Local Time) from PHNG Reporting Station
Broken Clouds Broken Clouds  
Wind Chill: 80°   Ceiling: 5000
Heat Index: 83°   Visibility: 10mi
Dew Point: 70°   Wind: 14mph
Humidity: 71%   Direction: 80°E
Pressure: 30.06"   Gusts: 18mph
Location:  21.45°N, 157.75°W
Report Text: PHNG 250725Z 08012G16KT 10SM SCT024 SCT044 BKN050 27/21 A3006 RMK AO2 T02670211 $
Loading
Personal Weather Stations






























Interactive Weather Map
Tropical Storm Tracking
New forecast layout! Learn more

10-Day Weather Forecast

Advertisements
Track Severe Weather on mobile